<?xml version="1.0" encoding="utf-8"?>
<gpx xmlns:xsi="http://www.w3.org/2001/XMLSchema-instance" xmlns:xsd="http://www.w3.org/2001/XMLSchema" version="1.1" creator="Shapelink.com" xmlns="http://www.topografix.com/GPX/1/1" xmlns:gpxtpx="http://www.garmin.com/xmlschemas/TrackPointExtension/v1">
  <metadata>
    <name>Cycling 22.06 km, 2020-09-05</name>
    <desc></desc>
    <author><name>Marian Moron</name></author> 
    <time>2020-09-05T12:44:12Z</time>
  </metadata>
  <trk>
    <name>Cycling 22.06 km, 2020-09-05</name>
    <trkseg>
      <trkpt lat="51.22855425511" lon="4.449214108628">
        <ele>0</ele>
        <time>2020-09-05T12:44:12Z</time>
      </trkpt>
      <trkpt lat="51.228787691025" lon="4.448784871529">
        <ele>0</ele>
        <time>2020-09-05T12:44:31Z</time>
      </trkpt>
      <trkpt lat="51.2288149322" lon="4.448772717774">
        <ele>0</ele>
        <time>2020-09-05T12:44:33Z</time>
      </trkpt>
      <trkpt lat="51.228819709883" lon="4.448860057172">
        <ele>0</ele>
        <time>2020-09-05T12:44:36Z</time>
      </trkpt>
      <trkpt lat="51.228767239189" lon="4.448858129335">
        <ele>0</ele>
        <time>2020-09-05T12:44:39Z</time>
      </trkpt>
      <trkpt lat="51.22876715537" lon="4.448799791311">
        <ele>0</ele>
        <time>2020-09-05T12:44:41Z</time>
      </trkpt>
      <trkpt lat="51.228963878563" lon="4.448405506735">
        <ele>0</ele>
        <time>2020-09-05T12:45:02Z</time>
      </trkpt>
      <trkpt lat="51.228608486003" lon="4.44772866831">
        <ele>0</ele>
        <time>2020-09-05T12:45:23Z</time>
      </trkpt>
      <trkpt lat="51.22832459105" lon="4.447173032159">
        <ele>0</ele>
        <time>2020-09-05T12:45:40Z</time>
      </trkpt>
      <trkpt lat="51.228695741582" lon="4.446524776013">
        <ele>0</ele>
        <time>2020-09-05T12:46:04Z</time>
      </trkpt>
      <trkpt lat="51.229066305381" lon="4.445893451305">
        <ele>2</ele>
        <time>2020-09-05T12:46:33Z</time>
      </trkpt>
      <trkpt lat="51.229460422319" lon="4.445315100205">
        <ele>5.2</ele>
        <time>2020-09-05T12:47:20Z</time>
      </trkpt>
      <trkpt lat="51.229519598533" lon="4.445216864337">
        <ele>5.2</ele>
        <time>2020-09-05T12:47:26Z</time>
      </trkpt>
      <trkpt lat="51.229799637812" lon="4.444924838941">
        <ele>5.2</ele>
        <time>2020-09-05T12:47:44Z</time>
      </trkpt>
      <trkpt lat="51.230249242928" lon="4.444185974456">
        <ele>1.4</ele>
        <time>2020-09-05T12:49:22Z</time>
      </trkpt>
      <trkpt lat="51.230628523903" lon="4.443556242309">
        <ele>1.6</ele>
        <time>2020-09-05T12:49:44Z</time>
      </trkpt>
      <trkpt lat="51.231055665527" lon="4.443017956691">
        <ele>2.2</ele>
        <time>2020-09-05T12:50:07Z</time>
      </trkpt>
      <trkpt lat="51.231326484716" lon="4.443056681069">
        <ele>5.2</ele>
        <time>2020-09-05T12:50:21Z</time>
      </trkpt>
      <trkpt lat="51.231428911534" lon="4.442916954796">
        <ele>7.4</ele>
        <time>2020-09-05T12:50:33Z</time>
      </trkpt>
      <trkpt lat="51.231973483577" lon="4.443008652782">
        <ele>4.2</ele>
        <time>2020-09-05T12:51:09Z</time>
      </trkpt>
      <trkpt lat="51.232280261117" lon="4.443072858136">
        <ele>4.4</ele>
        <time>2020-09-05T12:51:32Z</time>
      </trkpt>
      <trkpt lat="51.232308424301" lon="4.443076881448">
        <ele>4.2</ele>
        <time>2020-09-05T12:52:02Z</time>
      </trkpt>
      <trkpt lat="51.232634396392" lon="4.44311275598">
        <ele>4.8</ele>
        <time>2020-09-05T12:52:24Z</time>
      </trkpt>
      <trkpt lat="51.233183159385" lon="4.443201855577">
        <ele>5.8</ele>
        <time>2020-09-05T12:52:55Z</time>
      </trkpt>
      <trkpt lat="51.233717924605" lon="4.443349544655">
        <ele>7</ele>
        <time>2020-09-05T12:53:23Z</time>
      </trkpt>
      <trkpt lat="51.233750781653" lon="4.443349628474">
        <ele>7.2</ele>
        <time>2020-09-05T12:53:25Z</time>
      </trkpt>
      <trkpt lat="51.233779196294" lon="4.443358010374">
        <ele>7.2</ele>
        <time>2020-09-05T12:53:27Z</time>
      </trkpt>
      <trkpt lat="51.233921101861" lon="4.443401260978">
        <ele>7.6</ele>
        <time>2020-09-05T12:53:37Z</time>
      </trkpt>
      <trkpt lat="51.234311279306" lon="4.443470830748">
        <ele>9.6</ele>
        <time>2020-09-05T12:54:05Z</time>
      </trkpt>
      <trkpt lat="51.23436039724" lon="4.443466639798">
        <ele>9.8</ele>
        <time>2020-09-05T12:54:25Z</time>
      </trkpt>
      <trkpt lat="51.234895665374" lon="4.443370667043">
        <ele>12</ele>
        <time>2020-09-05T12:55:01Z</time>
      </trkpt>
      <trkpt lat="51.235429173309" lon="4.443138656051">
        <ele>13.6</ele>
        <time>2020-09-05T12:55:30Z</time>
      </trkpt>
      <trkpt lat="51.235930830024" lon="4.442788292631">
        <ele>11.6</ele>
        <time>2020-09-05T12:55:46Z</time>
      </trkpt>
      <trkpt lat="51.236277589227" lon="4.442434408813">
        <ele>10</ele>
        <time>2020-09-05T12:55:55Z</time>
      </trkpt>
      <trkpt lat="51.236346320807" lon="4.442355199858">
        <ele>9.6</ele>
        <time>2020-09-05T12:55:57Z</time>
      </trkpt>
      <trkpt lat="51.23649359079" lon="4.442217736698">
        <ele>9</ele>
        <time>2020-09-05T12:56:01Z</time>
      </trkpt>
      <trkpt lat="51.236966078493" lon="4.441766539021">
        <ele>6.4</ele>
        <time>2020-09-05T12:56:13Z</time>
      </trkpt>
      <trkpt lat="51.237449378847" lon="4.441369488418">
        <ele>4.4</ele>
        <time>2020-09-05T12:56:27Z</time>
      </trkpt>
      <trkpt lat="51.237518613341" lon="4.441302600856">
        <ele>4.2</ele>
        <time>2020-09-05T12:56:29Z</time>
      </trkpt>
      <trkpt lat="51.237708882471" lon="4.441184667523">
        <ele>3.4</ele>
        <time>2020-09-05T12:56:34Z</time>
      </trkpt>
      <trkpt lat="51.238236942171" lon="4.440912591049">
        <ele>1.8</ele>
        <time>2020-09-05T12:56:50Z</time>
      </trkpt>
      <trkpt lat="51.238774473418" lon="4.440816366837">
        <ele>1.4</ele>
        <time>2020-09-05T12:57:14Z</time>
      </trkpt>
      <trkpt lat="51.239294151218" lon="4.440529705857">
        <ele>3</ele>
        <time>2020-09-05T12:57:38Z</time>
      </trkpt>
      <trkpt lat="51.239784743825" lon="4.440130727417">
        <ele>22.6</ele>
        <time>2020-09-05T12:58:05Z</time>
      </trkpt>
      <trkpt lat="51.24031908995" lon="4.440006088564">
        <ele>20.8</ele>
        <time>2020-09-05T12:58:26Z</time>
      </trkpt>
      <trkpt lat="51.240844886537" lon="4.439675757885">
        <ele>27.8</ele>
        <time>2020-09-05T12:58:47Z</time>
      </trkpt>
      <trkpt lat="51.241122830341" lon="4.439763600197">
        <ele>21.6</ele>
        <time>2020-09-05T12:58:59Z</time>
      </trkpt>
      <trkpt lat="51.241159123968" lon="4.439853370346">
        <ele>17</ele>
        <time>2020-09-05T12:59:02Z</time>
      </trkpt>
      <trkpt lat="51.241660361588" lon="4.440041460182">
        <ele>7.4</ele>
        <time>2020-09-05T12:59:25Z</time>
      </trkpt>
      <trkpt lat="51.242058837114" lon="4.440645208439">
        <ele>5.4</ele>
        <time>2020-09-05T12:59:42Z</time>
      </trkpt>
      <trkpt lat="51.24245731264" lon="4.441221631702">
        <ele>3.6</ele>
        <time>2020-09-05T12:59:59Z</time>
      </trkpt>
      <trkpt lat="51.242807927517" lon="4.441904840371">
        <ele>4.2</ele>
        <time>2020-09-05T13:00:16Z</time>
      </trkpt>
      <trkpt lat="51.242989479471" lon="4.442325527932">
        <ele>5.4</ele>
        <time>2020-09-05T13:00:30Z</time>
      </trkpt>
      <trkpt lat="51.243022839433" lon="4.442330557072">
        <ele>7.8</ele>
        <time>2020-09-05T13:00:41Z</time>
      </trkpt>
      <trkpt lat="51.243038429767" lon="4.442361151007">
        <ele>7.6</ele>
        <time>2020-09-05T13:00:42Z</time>
      </trkpt>
      <trkpt lat="51.243305477101" lon="4.442889965078">
        <ele>12.2</ele>
        <time>2020-09-05T13:01:03Z</time>
      </trkpt>
      <trkpt lat="51.24361904398" lon="4.443623381328">
        <ele>7.6</ele>
        <time>2020-09-05T13:01:28Z</time>
      </trkpt>
      <trkpt lat="51.243876787405" lon="4.444389067893">
        <ele>0</ele>
        <time>2020-09-05T13:01:48Z</time>
      </trkpt>
      <trkpt lat="51.243896317232" lon="4.444441706225">
        <ele>0</ele>
        <time>2020-09-05T13:01:51Z</time>
      </trkpt>
      <trkpt lat="51.243932443221" lon="4.444446651546">
        <ele>2.8</ele>
        <time>2020-09-05T13:02:09Z</time>
      </trkpt>
      <trkpt lat="51.243945267528" lon="4.444482442259">
        <ele>2.6</ele>
        <time>2020-09-05T13:02:11Z</time>
      </trkpt>
      <trkpt lat="51.244243746987" lon="4.445217786346">
        <ele>0.8</ele>
        <time>2020-09-05T13:02:30Z</time>
      </trkpt>
      <trkpt lat="51.244589248905" lon="4.445910885657">
        <ele>5.2</ele>
        <time>2020-09-05T13:02:47Z</time>
      </trkpt>
      <trkpt lat="51.244951179347" lon="4.44657448068">
        <ele>11.2</ele>
        <time>2020-09-05T13:03:04Z</time>
      </trkpt>
      <trkpt lat="51.245266506425" lon="4.44732968987">
        <ele>8.2</ele>
        <time>2020-09-05T13:03:23Z</time>
      </trkpt>
      <trkpt lat="51.245560627296" lon="4.448078612635">
        <ele>4.8</ele>
        <time>2020-09-05T13:03:42Z</time>
      </trkpt>
      <trkpt lat="51.245867321017" lon="4.44881747712">
        <ele>0</ele>
        <time>2020-09-05T13:04:02Z</time>
      </trkpt>
      <trkpt lat="51.24618055262" lon="4.449530273896">
        <ele>0</ele>
        <time>2020-09-05T13:04:19Z</time>
      </trkpt>
      <trkpt lat="51.246526641271" lon="4.45021976899">
        <ele>3</ele>
        <time>2020-09-05T13:04:37Z</time>
      </trkpt>
      <trkpt lat="51.246844818195" lon="4.450958465837">
        <ele>1.8</ele>
        <time>2020-09-05T13:04:54Z</time>
      </trkpt>
      <trkpt lat="51.247143130016" lon="4.451705544584">
        <ele>1.8</ele>
        <time>2020-09-05T13:05:10Z</time>
      </trkpt>
      <trkpt lat="51.247453511773" lon="4.452415742971">
        <ele>0.8</ele>
        <time>2020-09-05T13:05:25Z</time>
      </trkpt>
      <trkpt lat="51.24776221715" lon="4.45313415562">
        <ele>0</ele>
        <time>2020-09-05T13:05:41Z</time>
      </trkpt>
      <trkpt lat="51.248207379859" lon="4.453668250288">
        <ele>3</ele>
        <time>2020-09-05T13:05:59Z</time>
      </trkpt>
      <trkpt lat="51.248686153987" lon="4.454130512073">
        <ele>6</ele>
        <time>2020-09-05T13:06:16Z</time>
      </trkpt>
      <trkpt lat="51.249149924514" lon="4.454576429153">
        <ele>5</ele>
        <time>2020-09-05T13:06:37Z</time>
      </trkpt>
      <trkpt lat="51.249649234297" lon="4.454966858055">
        <ele>8.8</ele>
        <time>2020-09-05T13:06:55Z</time>
      </trkpt>
      <trkpt lat="51.250125745312" lon="4.455416714628">
        <ele>9.6</ele>
        <time>2020-09-05T13:07:14Z</time>
      </trkpt>
      <trkpt lat="51.250632514986" lon="4.455846370822">
        <ele>17.8</ele>
        <time>2020-09-05T13:07:31Z</time>
      </trkpt>
      <trkpt lat="51.251092765115" lon="4.456309973711">
        <ele>10.4</ele>
        <time>2020-09-05T13:07:47Z</time>
      </trkpt>
      <trkpt lat="51.251561480963" lon="4.456775420618">
        <ele>9.8</ele>
        <time>2020-09-05T13:08:05Z</time>
      </trkpt>
      <trkpt lat="51.25203614796" lon="4.457235503109">
        <ele>12.2</ele>
        <time>2020-09-05T13:08:24Z</time>
      </trkpt>
      <trkpt lat="51.252498242107" lon="4.457685778777">
        <ele>13.8</ele>
        <time>2020-09-05T13:08:44Z</time>
      </trkpt>
      <trkpt lat="51.252979279348" lon="4.458111160202">
        <ele>9.4</ele>
        <time>2020-09-05T13:09:03Z</time>
      </trkpt>
      <trkpt lat="51.253437936916" lon="4.458583899362">
        <ele>8.4</ele>
        <time>2020-09-05T13:09:21Z</time>
      </trkpt>
      <trkpt lat="51.253918303605" lon="4.459040461455">
        <ele>6.6</ele>
        <time>2020-09-05T13:09:38Z</time>
      </trkpt>
      <trkpt lat="51.254386181263" lon="4.459496101539">
        <ele>5.2</ele>
        <time>2020-09-05T13:09:56Z</time>
      </trkpt>
      <trkpt lat="51.25486001007" lon="4.45996875688">
        <ele>6.4</ele>
        <time>2020-09-05T13:10:14Z</time>
      </trkpt>
      <trkpt lat="51.255343394243" lon="4.460374357021">
        <ele>5.8</ele>
        <time>2020-09-05T13:10:31Z</time>
      </trkpt>
      <trkpt lat="51.255836333782" lon="4.460820944653">
        <ele>5.2</ele>
        <time>2020-09-05T13:10:49Z</time>
      </trkpt>
      <trkpt lat="51.256327764579" lon="4.461258479833">
        <ele>3.8</ele>
        <time>2020-09-05T13:11:07Z</time>
      </trkpt>
      <trkpt lat="51.256810310562" lon="4.461690818235">
        <ele>3.8</ele>
        <time>2020-09-05T13:11:24Z</time>
      </trkpt>
      <trkpt lat="51.257277685306" lon="4.462124330103">
        <ele>3.8</ele>
        <time>2020-09-05T13:11:41Z</time>
      </trkpt>
      <trkpt lat="51.25768722494" lon="4.462614838891">
        <ele>3.6</ele>
        <time>2020-09-05T13:11:59Z</time>
      </trkpt>
      <trkpt lat="51.258196173908" lon="4.462954724936">
        <ele>1</ele>
        <time>2020-09-05T13:12:17Z</time>
      </trkpt>
      <trkpt lat="51.258638738228" lon="4.463466691388">
        <ele>2.6</ele>
        <time>2020-09-05T13:12:35Z</time>
      </trkpt>
      <trkpt lat="51.259094378312" lon="4.463924846042">
        <ele>2</ele>
        <time>2020-09-05T13:12:54Z</time>
      </trkpt>
      <trkpt lat="51.259600309796" lon="4.464274287453">
        <ele>2.2</ele>
        <time>2020-09-05T13:13:12Z</time>
      </trkpt>
      <trkpt lat="51.259651690843" lon="4.464273281625">
        <ele>2</ele>
        <time>2020-09-05T13:13:14Z</time>
      </trkpt>
      <trkpt lat="51.259694857628" lon="4.464235395437">
        <ele>1.8</ele>
        <time>2020-09-05T13:13:16Z</time>
      </trkpt>
      <trkpt lat="51.259737940594" lon="4.464247800649">
        <ele>1.6</ele>
        <time>2020-09-05T13:13:19Z</time>
      </trkpt>
      <trkpt lat="51.259751519272" lon="4.464244699346">
        <ele>2.6</ele>
        <time>2020-09-05T13:13:48Z</time>
      </trkpt>
      <trkpt lat="51.259775575325" lon="4.464259032395">
        <ele>2.6</ele>
        <time>2020-09-05T13:13:50Z</time>
      </trkpt>
      <trkpt lat="51.260318806264" lon="4.464285603018">
        <ele>2.4</ele>
        <time>2020-09-05T13:14:09Z</time>
      </trkpt>
      <trkpt lat="51.260876789347" lon="4.464239083473">
        <ele>2.2</ele>
        <time>2020-09-05T13:14:26Z</time>
      </trkpt>
      <trkpt lat="51.261422786313" lon="4.464135818465">
        <ele>2.2</ele>
        <time>2020-09-05T13:14:42Z</time>
      </trkpt>
      <trkpt lat="51.261980937034" lon="4.464033391647">
        <ele>2.6</ele>
        <time>2020-09-05T13:14:59Z</time>
      </trkpt>
      <trkpt lat="51.26253783047" lon="4.463982429695">
        <ele>3.2</ele>
        <time>2020-09-05T13:15:17Z</time>
      </trkpt>
      <trkpt lat="51.262789958022" lon="4.464283339905">
        <ele>3.8</ele>
        <time>2020-09-05T13:15:31Z</time>
      </trkpt>
      <trkpt lat="51.262817199197" lon="4.46427034796">
        <ele>3.6</ele>
        <time>2020-09-05T13:15:33Z</time>
      </trkpt>
      <trkpt lat="51.262577057762" lon="4.464129029126">
        <ele>3</ele>
        <time>2020-09-05T13:15:45Z</time>
      </trkpt>
      <trkpt lat="51.262580745798" lon="4.464583663382">
        <ele>2.8</ele>
        <time>2020-09-05T13:15:54Z</time>
      </trkpt>
      <trkpt lat="51.262780821751" lon="4.464527420833">
        <ele>3</ele>
        <time>2020-09-05T13:16:04Z</time>
      </trkpt>
      <trkpt lat="51.262816528645" lon="4.464529767765">
        <ele>3.2</ele>
        <time>2020-09-05T13:16:06Z</time>
      </trkpt>
      <trkpt lat="51.262583679463" lon="4.463985782455">
        <ele>4</ele>
        <time>2020-09-05T13:16:30Z</time>
      </trkpt>
      <trkpt lat="51.263011659277" lon="4.463867346208">
        <ele>3.6</ele>
        <time>2020-09-05T13:16:45Z</time>
      </trkpt>
      <trkpt lat="51.263035128597" lon="4.463980920953">
        <ele>3.8</ele>
        <time>2020-09-05T13:16:48Z</time>
      </trkpt>
      <trkpt lat="51.263306534519" lon="4.463954853244">
        <ele>3.4</ele>
        <time>2020-09-05T13:17:02Z</time>
      </trkpt>
      <trkpt lat="51.263522033168" lon="4.463946219887">
        <ele>0</ele>
        <time>2020-09-05T13:47:34Z</time>
      </trkpt>
      <trkpt lat="51.263994939966" lon="4.463830549667">
        <ele>0</ele>
        <time>2020-09-05T13:47:55Z</time>
      </trkpt>
      <trkpt lat="51.264053697085" lon="4.463608932231">
        <ele>0.6</ele>
        <time>2020-09-05T13:48:02Z</time>
      </trkpt>
      <trkpt lat="51.264106670693" lon="4.463597365209">
        <ele>0.8</ele>
        <time>2020-09-05T13:48:05Z</time>
      </trkpt>
      <trkpt lat="51.264138354275" lon="4.463581691056">
        <ele>1</ele>
        <time>2020-09-05T13:48:07Z</time>
      </trkpt>
      <trkpt lat="51.264339855151" lon="4.463550678026">
        <ele>1</ele>
        <time>2020-09-05T13:48:19Z</time>
      </trkpt>
      <trkpt lat="51.264893479646" lon="4.463485215387">
        <ele>0</ele>
        <time>2020-09-05T13:48:43Z</time>
      </trkpt>
      <trkpt lat="51.265261864151" lon="4.463506253956">
        <ele>0.2</ele>
        <time>2020-09-05T13:49:07Z</time>
      </trkpt>
      <trkpt lat="51.265303773651" lon="4.463494686934">
        <ele>0.8</ele>
        <time>2020-09-05T13:49:46Z</time>
      </trkpt>
      <trkpt lat="51.265835186111" lon="4.463343980372">
        <ele>1.2</ele>
        <time>2020-09-05T13:50:12Z</time>
      </trkpt>
      <trkpt lat="51.266376070118" lon="4.463242810839">
        <ele>0.2</ele>
        <time>2020-09-05T13:50:35Z</time>
      </trkpt>
      <trkpt lat="51.266918714324" lon="4.463103000747">
        <ele>0</ele>
        <time>2020-09-05T13:50:54Z</time>
      </trkpt>
      <trkpt lat="51.267458592503" lon="4.463248091436">
        <ele>0</ele>
        <time>2020-09-05T13:51:15Z</time>
      </trkpt>
      <trkpt lat="51.267914567863" lon="4.463788053434">
        <ele>0</ele>
        <time>2020-09-05T13:51:33Z</time>
      </trkpt>
      <trkpt lat="51.268058317448" lon="4.463936999797">
        <ele>0</ele>
        <time>2020-09-05T13:51:42Z</time>
      </trkpt>
      <trkpt lat="51.268066280253" lon="4.463975388899">
        <ele>0</ele>
        <time>2020-09-05T13:52:19Z</time>
      </trkpt>
      <trkpt lat="51.268067872814" lon="4.464025512661">
        <ele>0</ele>
        <time>2020-09-05T13:52:22Z</time>
      </trkpt>
      <trkpt lat="51.268468779091" lon="4.46461735862">
        <ele>0</ele>
        <time>2020-09-05T13:52:45Z</time>
      </trkpt>
      <trkpt lat="51.268954929291" lon="4.465022455847">
        <ele>0</ele>
        <time>2020-09-05T13:52:59Z</time>
      </trkpt>
      <trkpt lat="51.269400343457" lon="4.465526124218">
        <ele>0</ele>
        <time>2020-09-05T13:53:15Z</time>
      </trkpt>
      <trkpt lat="51.269837710999" lon="4.466045466742">
        <ele>0</ele>
        <time>2020-09-05T13:53:32Z</time>
      </trkpt>
      <trkpt lat="51.270282119337" lon="4.466563468162">
        <ele>0</ele>
        <time>2020-09-05T13:53:50Z</time>
      </trkpt>
      <trkpt lat="51.270728371693" lon="4.46706738799">
        <ele>0</ele>
        <time>2020-09-05T13:54:06Z</time>
      </trkpt>
      <trkpt lat="51.271203373966" lon="4.467568290334">
        <ele>4.2</ele>
        <time>2020-09-05T13:54:22Z</time>
      </trkpt>
      <trkpt lat="51.271622888061" lon="4.468118142974">
        <ele>0</ele>
        <time>2020-09-05T13:54:39Z</time>
      </trkpt>
      <trkpt lat="51.272074923928" lon="4.468663553207">
        <ele>0</ele>
        <time>2020-09-05T13:54:56Z</time>
      </trkpt>
      <trkpt lat="51.272518913171" lon="4.469167389216">
        <ele>0</ele>
        <time>2020-09-05T13:55:13Z</time>
      </trkpt>
      <trkpt lat="51.2729456357" lon="4.469699723685">
        <ele>0</ele>
        <time>2020-09-05T13:55:30Z</time>
      </trkpt>
      <trkpt lat="51.273396833377" lon="4.47022736429">
        <ele>0</ele>
        <time>2020-09-05T13:55:48Z</time>
      </trkpt>
      <trkpt lat="51.273849623615" lon="4.470744946615">
        <ele>0</ele>
        <time>2020-09-05T13:56:07Z</time>
      </trkpt>
      <trkpt lat="51.274297468532" lon="4.47124241238">
        <ele>0</ele>
        <time>2020-09-05T13:56:25Z</time>
      </trkpt>
      <trkpt lat="51.274731986228" lon="4.471758234506">
        <ele>0</ele>
        <time>2020-09-05T13:56:42Z</time>
      </trkpt>
      <trkpt lat="51.275170611055" lon="4.47228176798">
        <ele>0.2</ele>
        <time>2020-09-05T13:56:59Z</time>
      </trkpt>
      <trkpt lat="51.275632453745" lon="4.472741347557">
        <ele>6.4</ele>
        <time>2020-09-05T13:57:17Z</time>
      </trkpt>
      <trkpt lat="51.276084321974" lon="4.47325993571">
        <ele>6.2</ele>
        <time>2020-09-05T13:57:35Z</time>
      </trkpt>
      <trkpt lat="51.276485479708" lon="4.473851865488">
        <ele>0</ele>
        <time>2020-09-05T13:57:53Z</time>
      </trkpt>
      <trkpt lat="51.276959224696" lon="4.474327454494">
        <ele>3.8</ele>
        <time>2020-09-05T13:58:11Z</time>
      </trkpt>
      <trkpt lat="51.277404974138" lon="4.474851742339">
        <ele>4.2</ele>
        <time>2020-09-05T13:58:28Z</time>
      </trkpt>
      <trkpt lat="51.277830104106" lon="4.475385417912">
        <ele>2.4</ele>
        <time>2020-09-05T13:58:45Z</time>
      </trkpt>
      <trkpt lat="51.278287839665" lon="4.475907442644">
        <ele>5.2</ele>
        <time>2020-09-05T13:59:02Z</time>
      </trkpt>
      <trkpt lat="51.278741887188" lon="4.476448578108">
        <ele>2.2</ele>
        <time>2020-09-05T13:59:19Z</time>
      </trkpt>
      <trkpt lat="51.279191492304" lon="4.477009830132">
        <ele>0</ele>
        <time>2020-09-05T13:59:36Z</time>
      </trkpt>
      <trkpt lat="51.279631961149" lon="4.47753386652">
        <ele>0</ele>
        <time>2020-09-05T13:59:52Z</time>
      </trkpt>
      <trkpt lat="51.280071256528" lon="4.47809126287">
        <ele>0</ele>
        <time>2020-09-05T14:00:11Z</time>
      </trkpt>
      <trkpt lat="51.280527399526" lon="4.478598703096">
        <ele>0</ele>
        <time>2020-09-05T14:00:28Z</time>
      </trkpt>
      <trkpt lat="51.280969209475" lon="4.47909960544">
        <ele>0</ele>
        <time>2020-09-05T14:00:48Z</time>
      </trkpt>
      <trkpt lat="51.281408169578" lon="4.479601262155">
        <ele>0.6</ele>
        <time>2020-09-05T14:01:05Z</time>
      </trkpt>
      <trkpt lat="51.281878729444" lon="4.480097135359">
        <ele>4</ele>
        <time>2020-09-05T14:01:22Z</time>
      </trkpt>
      <trkpt lat="51.282312241312" lon="4.480645311619">
        <ele>2.8</ele>
        <time>2020-09-05T14:01:40Z</time>
      </trkpt>
      <trkpt lat="51.282754554175" lon="4.481187872006">
        <ele>2.6</ele>
        <time>2020-09-05T14:01:58Z</time>
      </trkpt>
      <trkpt lat="51.28320340492" lon="4.481747280012">
        <ele>0</ele>
        <time>2020-09-05T14:02:16Z</time>
      </trkpt>
      <trkpt lat="51.283635827141" lon="4.482265029975">
        <ele>0</ele>
        <time>2020-09-05T14:02:32Z</time>
      </trkpt>
      <trkpt lat="51.284074703425" lon="4.482770626183">
        <ele>0</ele>
        <time>2020-09-05T14:02:48Z</time>
      </trkpt>
      <trkpt lat="51.284470161467" lon="4.483348222912">
        <ele>1</ele>
        <time>2020-09-05T14:03:05Z</time>
      </trkpt>
      <trkpt lat="51.284292549006" lon="4.484164871429">
        <ele>2.4</ele>
        <time>2020-09-05T14:03:24Z</time>
      </trkpt>
      <trkpt lat="51.284173777483" lon="4.485016723926">
        <ele>3.8</ele>
        <time>2020-09-05T14:03:43Z</time>
      </trkpt>
      <trkpt lat="51.28449505571" lon="4.48570621902">
        <ele>3.2</ele>
        <time>2020-09-05T14:04:01Z</time>
      </trkpt>
      <trkpt lat="51.284905182077" lon="4.486296807694">
        <ele>0</ele>
        <time>2020-09-05T14:04:19Z</time>
      </trkpt>
      <trkpt lat="51.285333664805" lon="4.486850767465">
        <ele>0</ele>
        <time>2020-09-05T14:04:37Z</time>
      </trkpt>
      <trkpt lat="51.285781593541" lon="4.487375390586">
        <ele>0.6</ele>
        <time>2020-09-05T14:04:54Z</time>
      </trkpt>
      <trkpt lat="51.286220637463" lon="4.487933876583">
        <ele>0.6</ele>
        <time>2020-09-05T14:05:12Z</time>
      </trkpt>
      <trkpt lat="51.286663956154" lon="4.488468809441">
        <ele>0</ele>
        <time>2020-09-05T14:05:29Z</time>
      </trkpt>
      <trkpt lat="51.287113477451" lon="4.489005921593">
        <ele>0</ele>
        <time>2020-09-05T14:05:46Z</time>
      </trkpt>
      <trkpt lat="51.287546318767" lon="4.489565161961">
        <ele>5</ele>
        <time>2020-09-05T14:06:03Z</time>
      </trkpt>
      <trkpt lat="51.287951248356" lon="4.490213669564">
        <ele>15.8</ele>
        <time>2020-09-05T14:06:20Z</time>
      </trkpt>
      <trkpt lat="51.288293816609" lon="4.490943565416">
        <ele>17</ele>
        <time>2020-09-05T14:06:38Z</time>
      </trkpt>
      <trkpt lat="51.288663961313" lon="4.491577404694">
        <ele>16.2</ele>
        <time>2020-09-05T14:06:56Z</time>
      </trkpt>
      <trkpt lat="51.289109543117" lon="4.492072020613">
        <ele>2</ele>
        <time>2020-09-05T14:07:19Z</time>
      </trkpt>
      <trkpt lat="51.289312804192" lon="4.49215273831">
        <ele>2.8</ele>
        <time>2020-09-05T14:07:30Z</time>
      </trkpt>
      <trkpt lat="51.289396539373" lon="4.492136477424">
        <ele>4</ele>
        <time>2020-09-05T14:07:34Z</time>
      </trkpt>
      <trkpt lat="51.289409782775" lon="4.49219045686">
        <ele>4</ele>
        <time>2020-09-05T14:07:36Z</time>
      </trkpt>
      <trkpt lat="51.289379943211" lon="4.492246531771">
        <ele>3.8</ele>
        <time>2020-09-05T14:07:38Z</time>
      </trkpt>
      <trkpt lat="51.289327640155" lon="4.492295062972">
        <ele>3.8</ele>
        <time>2020-09-05T14:07:41Z</time>
      </trkpt>
      <trkpt lat="51.289334513313" lon="4.49234468382">
        <ele>3.4</ele>
        <time>2020-09-05T14:07:44Z</time>
      </trkpt>
      <trkpt lat="51.2898016366" lon="4.492582478323">
        <ele>1</ele>
        <time>2020-09-05T14:08:08Z</time>
      </trkpt>
      <trkpt lat="51.289989894074" lon="4.492605025634">
        <ele>1.8</ele>
        <time>2020-09-05T14:08:26Z</time>
      </trkpt>
      <trkpt lat="51.290467410917" lon="4.492629333144">
        <ele>6</ele>
        <time>2020-09-05T14:08:51Z</time>
      </trkpt>
      <trkpt lat="51.29078148071" lon="4.49329519128">
        <ele>5</ele>
        <time>2020-09-05T14:09:13Z</time>
      </trkpt>
      <trkpt lat="51.290794640293" lon="4.493322683912">
        <ele>4.8</ele>
        <time>2020-09-05T14:09:22Z</time>
      </trkpt>
      <trkpt lat="51.290749378033" lon="4.493308686139">
        <ele>5.4</ele>
        <time>2020-09-05T14:13:27Z</time>
      </trkpt>
      <trkpt lat="51.290655249296" lon="4.493353110209">
        <ele>1.4</ele>
        <time>2020-09-05T14:13:43Z</time>
      </trkpt>
      <trkpt lat="51.290444109235" lon="4.493092265481">
        <ele>2.6</ele>
        <time>2020-09-05T14:13:59Z</time>
      </trkpt>
      <trkpt lat="51.290393314921" lon="4.492739052215">
        <ele>2</ele>
        <time>2020-09-05T14:14:10Z</time>
      </trkpt>
      <trkpt lat="51.28987623551" lon="4.492693957593">
        <ele>1.4</ele>
        <time>2020-09-05T14:14:34Z</time>
      </trkpt>
      <trkpt lat="51.289857460054" lon="4.492654059749">
        <ele>0.8</ele>
        <time>2020-09-05T14:14:36Z</time>
      </trkpt>
      <trkpt lat="51.289838852236" lon="4.492583735608">
        <ele>0</ele>
        <time>2020-09-05T14:14:41Z</time>
      </trkpt>
      <trkpt lat="51.289366196895" lon="4.492339738499">
        <ele>5.4</ele>
        <time>2020-09-05T14:15:06Z</time>
      </trkpt>
      <trkpt lat="51.289239881662" lon="4.492326578916">
        <ele>4.8</ele>
        <time>2020-09-05T14:15:32Z</time>
      </trkpt>
      <trkpt lat="51.289234936341" lon="4.492283663588">
        <ele>4.4</ele>
        <time>2020-09-05T14:16:27Z</time>
      </trkpt>
      <trkpt lat="51.289544060813" lon="4.49258775892">
        <ele>0</ele>
        <time>2020-09-05T14:33:00Z</time>
      </trkpt>
      <trkpt lat="51.289613127669" lon="4.492550794741">
        <ele>0</ele>
        <time>2020-09-05T14:33:05Z</time>
      </trkpt>
      <trkpt lat="51.289676662471" lon="4.493413627527">
        <ele>0</ele>
        <time>2020-09-05T14:33:32Z</time>
      </trkpt>
      <trkpt lat="51.289728546432" lon="4.494299091443">
        <ele>0</ele>
        <time>2020-09-05T14:33:54Z</time>
      </trkpt>
      <trkpt lat="51.289756793435" lon="4.495188075757">
        <ele>0</ele>
        <time>2020-09-05T14:34:13Z</time>
      </trkpt>
      <trkpt lat="51.289763415136" lon="4.496049651258">
        <ele>0</ele>
        <time>2020-09-05T14:34:29Z</time>
      </trkpt>
      <trkpt lat="51.289799457306" lon="4.496953136259">
        <ele>0</ele>
        <time>2020-09-05T14:34:47Z</time>
      </trkpt>
      <trkpt lat="51.28979744565" lon="4.497862069495">
        <ele>0</ele>
        <time>2020-09-05T14:35:04Z</time>
      </trkpt>
      <trkpt lat="51.289906326531" lon="4.498744515927">
        <ele>0.4</ele>
        <time>2020-09-05T14:35:21Z</time>
      </trkpt>
      <trkpt lat="51.290082514069" lon="4.499592428931">
        <ele>1.2</ele>
        <time>2020-09-05T14:35:38Z</time>
      </trkpt>
      <trkpt lat="51.290285356049" lon="4.500437072994">
        <ele>1.6</ele>
        <time>2020-09-05T14:35:56Z</time>
      </trkpt>
      <trkpt lat="51.290485348183" lon="4.500944177944">
        <ele>1.8</ele>
        <time>2020-09-05T14:36:08Z</time>
      </trkpt>
      <trkpt lat="51.290205141266" lon="4.501710115966">
        <ele>3</ele>
        <time>2020-09-05T14:36:35Z</time>
      </trkpt>
      <trkpt lat="51.289423277634" lon="4.501972301798">
        <ele>1.4</ele>
        <time>2020-09-05T14:36:58Z</time>
      </trkpt>
      <trkpt lat="51.288858589031" lon="4.501971547427">
        <ele>0</ele>
        <time>2020-09-05T14:37:16Z</time>
      </trkpt>
      <trkpt lat="51.288314771359" lon="4.502208336102">
        <ele>0</ele>
        <time>2020-09-05T14:37:32Z</time>
      </trkpt>
      <trkpt lat="51.287793500998" lon="4.502577474978">
        <ele>0</ele>
        <time>2020-09-05T14:37:47Z</time>
      </trkpt>
      <trkpt lat="51.287239960322" lon="4.5027399162">
        <ele>0</ele>
        <time>2020-09-05T14:38:03Z</time>
      </trkpt>
      <trkpt lat="51.28669865722" lon="4.502830775996">
        <ele>0</ele>
        <time>2020-09-05T14:38:18Z</time>
      </trkpt>
      <trkpt lat="51.286159784869" lon="4.503037641288">
        <ele>0</ele>
        <time>2020-09-05T14:38:36Z</time>
      </trkpt>
      <trkpt lat="51.285725434811" lon="4.503507195326">
        <ele>8</ele>
        <time>2020-09-05T14:38:57Z</time>
      </trkpt>
      <trkpt lat="51.285247247416" lon="4.503974318613">
        <ele>0</ele>
        <time>2020-09-05T14:39:17Z</time>
      </trkpt>
      <trkpt lat="51.284870397192" lon="4.504601871466">
        <ele>0</ele>
        <time>2020-09-05T14:39:31Z</time>
      </trkpt>
      <trkpt lat="51.284527326025" lon="4.505279799538">
        <ele>8</ele>
        <time>2020-09-05T14:39:48Z</time>
      </trkpt>
      <trkpt lat="51.284235384448" lon="4.50604489937">
        <ele>10.2</ele>
        <time>2020-09-05T14:40:09Z</time>
      </trkpt>
      <trkpt lat="51.283985017095" lon="4.506858027489">
        <ele>6.2</ele>
        <time>2020-09-05T14:40:29Z</time>
      </trkpt>
      <trkpt lat="51.283818552561" lon="4.507674843644">
        <ele>1.2</ele>
        <time>2020-09-05T14:40:51Z</time>
      </trkpt>
      <trkpt lat="51.283687208188" lon="4.508513871834">
        <ele>5.2</ele>
        <time>2020-09-05T14:41:15Z</time>
      </trkpt>
      <trkpt lat="51.283536585445" lon="4.509354995499">
        <ele>9.8</ele>
        <time>2020-09-05T14:41:43Z</time>
      </trkpt>
      <trkpt lat="51.283525353699" lon="4.509420877233">
        <ele>9.8</ele>
        <time>2020-09-05T14:41:49Z</time>
      </trkpt>
      <trkpt lat="51.283492077556" lon="4.509529339019">
        <ele>9.8</ele>
        <time>2020-09-05T14:42:08Z</time>
      </trkpt>
      <trkpt lat="51.283328462868" lon="4.510344730251">
        <ele>8.6</ele>
        <time>2020-09-05T14:42:40Z</time>
      </trkpt>
      <trkpt lat="51.283152107692" lon="4.511178645482">
        <ele>9.8</ele>
        <time>2020-09-05T14:43:06Z</time>
      </trkpt>
      <trkpt lat="51.282992935411" lon="4.512029240694">
        <ele>9.2</ele>
        <time>2020-09-05T14:43:24Z</time>
      </trkpt>
      <trkpt lat="51.282853460595" lon="4.512860473717">
        <ele>6.6</ele>
        <time>2020-09-05T14:43:35Z</time>
      </trkpt>
      <trkpt lat="51.282671405727" lon="4.513727413634">
        <ele>3.8</ele>
        <time>2020-09-05T14:43:45Z</time>
      </trkpt>
      <trkpt lat="51.282484908452" lon="4.514543475418">
        <ele>4.8</ele>
        <time>2020-09-05T14:43:55Z</time>
      </trkpt>
      <trkpt lat="51.282212412883" lon="4.515306731232">
        <ele>5.4</ele>
        <time>2020-09-05T14:44:05Z</time>
      </trkpt>
      <trkpt lat="51.281910748302" lon="4.516067640114">
        <ele>4</ele>
        <time>2020-09-05T14:44:17Z</time>
      </trkpt>
      <trkpt lat="51.281616459793" lon="4.516825531512">
        <ele>3.6</ele>
        <time>2020-09-05T14:44:31Z</time>
      </trkpt>
      <trkpt lat="51.281342958396" lon="4.517615693225">
        <ele>5.6</ele>
        <time>2020-09-05T14:44:47Z</time>
      </trkpt>
      <trkpt lat="51.281037438141" lon="4.518363023429">
        <ele>9</ele>
        <time>2020-09-05T14:45:05Z</time>
      </trkpt>
      <trkpt lat="51.280764523477" lon="4.519112616746">
        <ele>5</ele>
        <time>2020-09-05T14:45:20Z</time>
      </trkpt>
      <trkpt lat="51.280506528595" lon="4.519902107907">
        <ele>4.2</ele>
        <time>2020-09-05T14:45:35Z</time>
      </trkpt>
      <trkpt lat="51.280215425208" lon="4.520690341783">
        <ele>3</ele>
        <time>2020-09-05T14:45:50Z</time>
      </trkpt>
      <trkpt lat="51.279932619902" lon="4.521487125197">
        <ele>1.6</ele>
        <time>2020-09-05T14:46:06Z</time>
      </trkpt>
      <trkpt lat="51.279642019429" lon="4.522265971345">
        <ele>3.6</ele>
        <time>2020-09-05T14:46:21Z</time>
      </trkpt>
      <trkpt lat="51.27938042033" lon="4.523046242416">
        <ele>3.4</ele>
        <time>2020-09-05T14:46:36Z</time>
      </trkpt>
      <trkpt lat="51.279110020236" lon="4.523800613416">
        <ele>3.6</ele>
        <time>2020-09-05T14:46:52Z</time>
      </trkpt>
      <trkpt lat="51.278826041464" lon="4.524582560867">
        <ele>2.8</ele>
        <time>2020-09-05T14:47:08Z</time>
      </trkpt>
      <trkpt lat="51.278548432936" lon="4.525361323196">
        <ele>1.4</ele>
        <time>2020-09-05T14:47:25Z</time>
      </trkpt>
      <trkpt lat="51.278178288232" lon="4.525983511633">
        <ele>0</ele>
        <time>2020-09-05T14:47:42Z</time>
      </trkpt>
      <trkpt lat="51.277681073924" lon="4.525588388867">
        <ele>2</ele>
        <time>2020-09-05T14:48:00Z</time>
      </trkpt>
      <trkpt lat="51.277193331163" lon="4.525196115947">
        <ele>2.6</ele>
        <time>2020-09-05T14:48:17Z</time>
      </trkpt>
      <trkpt lat="51.277017395082" lon="4.524939545988">
        <ele>3</ele>
        <time>2020-09-05T14:48:26Z</time>
      </trkpt>
      <trkpt lat="51.277115295674" lon="4.524382233457">
        <ele>14.8</ele>
        <time>2020-09-05T14:51:16Z</time>
      </trkpt>
      <trkpt lat="51.277045306809" lon="4.524708708462">
        <ele>9.8</ele>
        <time>2020-09-05T14:55:50Z</time>
      </trkpt>
      <trkpt lat="51.27694715476" lon="4.524589517844">
        <ele>6.2</ele>
        <time>2020-09-05T14:58:24Z</time>
      </trkpt>
      <trkpt lat="51.276855708231" lon="4.524745337365">
        <ele>5.4</ele>
        <time>2020-09-05T15:02:18Z</time>
      </trkpt>
      <trkpt lat="51.276785300271" lon="4.524792778919">
        <ele>4.4</ele>
        <time>2020-09-05T15:02:23Z</time>
      </trkpt>
      <trkpt lat="51.276291019628" lon="4.524402014741">
        <ele>2.6</ele>
        <time>2020-09-05T15:02:44Z</time>
      </trkpt>
      <trkpt lat="51.275811323491" lon="4.523989122347">
        <ele>3.4</ele>
        <time>2020-09-05T15:03:08Z</time>
      </trkpt>
      <trkpt lat="51.275314695916" lon="4.52356390856">
        <ele>4</ele>
        <time>2020-09-05T15:03:29Z</time>
      </trkpt>
      <trkpt lat="51.274850757751" lon="4.52311547691">
        <ele>3.6</ele>
        <time>2020-09-05T15:03:48Z</time>
      </trkpt>
      <trkpt lat="51.27440743906" lon="4.52262765033">
        <ele>5.2</ele>
        <time>2020-09-05T15:04:05Z</time>
      </trkpt>
      <trkpt lat="51.273978201961" lon="4.52206271027">
        <ele>3.6</ele>
        <time>2020-09-05T15:04:23Z</time>
      </trkpt>
      <trkpt lat="51.273559861332" lon="4.521502631712">
        <ele>0</ele>
        <time>2020-09-05T15:04:41Z</time>
      </trkpt>
      <trkpt lat="51.273120482134" lon="4.520940960593">
        <ele>0</ele>
        <time>2020-09-05T15:05:00Z</time>
      </trkpt>
      <trkpt lat="51.27269082594" lon="4.520374511791">
        <ele>1.8</ele>
        <time>2020-09-05T15:05:26Z</time>
      </trkpt>
      <trkpt lat="51.272272820587" lon="4.51980127365">
        <ele>0</ele>
        <time>2020-09-05T15:05:45Z</time>
      </trkpt>
      <trkpt lat="51.271859257641" lon="4.519242452377">
        <ele>0</ele>
        <time>2020-09-05T15:06:03Z</time>
      </trkpt>
      <trkpt lat="51.271445191781" lon="4.518682457638">
        <ele>0</ele>
        <time>2020-09-05T15:06:19Z</time>
      </trkpt>
      <trkpt lat="51.271012853379" lon="4.518099161217">
        <ele>0</ele>
        <time>2020-09-05T15:06:37Z</time>
      </trkpt>
      <trkpt lat="51.270586549945" lon="4.517546710188">
        <ele>0</ele>
        <time>2020-09-05T15:06:55Z</time>
      </trkpt>
      <trkpt lat="51.270152618982" lon="4.517000294127">
        <ele>0</ele>
        <time>2020-09-05T15:07:13Z</time>
      </trkpt>
      <trkpt lat="51.2697186042" lon="4.516423787045">
        <ele>0</ele>
        <time>2020-09-05T15:07:30Z</time>
      </trkpt>
      <trkpt lat="51.269292971318" lon="4.515879131183">
        <ele>0</ele>
        <time>2020-09-05T15:07:45Z</time>
      </trkpt>
      <trkpt lat="51.268874714508" lon="4.515320477548">
        <ele>0</ele>
        <time>2020-09-05T15:08:00Z</time>
      </trkpt>
      <trkpt lat="51.268453356395" lon="4.514774145306">
        <ele>0</ele>
        <time>2020-09-05T15:08:17Z</time>
      </trkpt>
      <trkpt lat="51.268015066844" lon="4.514213815291">
        <ele>0</ele>
        <time>2020-09-05T15:08:35Z</time>
      </trkpt>
      <trkpt lat="51.267600833346" lon="4.513663711194">
        <ele>0</ele>
        <time>2020-09-05T15:08:52Z</time>
      </trkpt>
      <trkpt lat="51.267164387813" lon="4.51308653356">
        <ele>0</ele>
        <time>2020-09-05T15:09:10Z</time>
      </trkpt>
      <trkpt lat="51.266730708307" lon="4.512497453628">
        <ele>0</ele>
        <time>2020-09-05T15:09:26Z</time>
      </trkpt>
      <trkpt lat="51.266317732094" lon="4.511916252682">
        <ele>0</ele>
        <time>2020-09-05T15:09:41Z</time>
      </trkpt>
      <trkpt lat="51.265857398146" lon="4.511367908784">
        <ele>0</ele>
        <time>2020-09-05T15:09:58Z</time>
      </trkpt>
      <trkpt lat="51.265453222928" lon="4.510795927928">
        <ele>0</ele>
        <time>2020-09-05T15:10:15Z</time>
      </trkpt>
      <trkpt lat="51.265090286658" lon="4.510116742571">
        <ele>0.6</ele>
        <time>2020-09-05T15:10:31Z</time>
      </trkpt>
      <trkpt lat="51.264718465574" lon="4.50948064018">
        <ele>0.6</ele>
        <time>2020-09-05T15:10:47Z</time>
      </trkpt>
      <trkpt lat="51.264352428001" lon="4.508788127602">
        <ele>0</ele>
        <time>2020-09-05T15:11:03Z</time>
      </trkpt>
      <trkpt lat="51.264014134517" lon="4.508115480127">
        <ele>0</ele>
        <time>2020-09-05T15:11:19Z</time>
      </trkpt>
      <trkpt lat="51.263946157308" lon="4.508081114337">
        <ele>0</ele>
        <time>2020-09-05T15:11:24Z</time>
      </trkpt>
      <trkpt lat="51.263973230845" lon="4.508102404363">
        <ele>0</ele>
        <time>2020-09-05T15:12:11Z</time>
      </trkpt>
      <trkpt lat="51.26395604795" lon="4.508133333574">
        <ele>0</ele>
        <time>2020-09-05T15:12:13Z</time>
      </trkpt>
      <trkpt lat="51.263567714523" lon="4.508670278088">
        <ele>0</ele>
        <time>2020-09-05T15:12:35Z</time>
      </trkpt>
      <trkpt lat="51.263038732814" lon="4.508600959775">
        <ele>0</ele>
        <time>2020-09-05T15:12:53Z</time>
      </trkpt>
      <trkpt lat="51.262520396118" lon="4.508337600477">
        <ele>0</ele>
        <time>2020-09-05T15:13:13Z</time>
      </trkpt>
      <trkpt lat="51.26198797783" lon="4.50801296949">
        <ele>0</ele>
        <time>2020-09-05T15:13:32Z</time>
      </trkpt>
      <trkpt lat="51.261487662219" lon="4.507690098702">
        <ele>0</ele>
        <time>2020-09-05T15:13:48Z</time>
      </trkpt>
      <trkpt lat="51.260971337179" lon="4.507384494628">
        <ele>0</ele>
        <time>2020-09-05T15:14:08Z</time>
      </trkpt>
      <trkpt lat="51.260455263596" lon="4.507053828673">
        <ele>0</ele>
        <time>2020-09-05T15:14:27Z</time>
      </trkpt>
      <trkpt lat="51.259929969923" lon="4.506719390863">
        <ele>0</ele>
        <time>2020-09-05T15:14:46Z</time>
      </trkpt>
      <trkpt lat="51.259035705012" lon="4.506097034788">
        <ele>0</ele>
        <time>2020-09-05T15:15:21Z</time>
      </trkpt>
      <trkpt lat="51.258516865402" lon="4.5058076916">
        <ele>0</ele>
        <time>2020-09-05T15:15:36Z</time>
      </trkpt>
      <trkpt lat="51.257985872037" lon="4.505474678713">
        <ele>0</ele>
        <time>2020-09-05T15:15:51Z</time>
      </trkpt>
      <trkpt lat="51.257471307196" lon="4.505136804324">
        <ele>0</ele>
        <time>2020-09-05T15:16:08Z</time>
      </trkpt>
      <trkpt lat="51.256968477015" lon="4.504793397881">
        <ele>0</ele>
        <time>2020-09-05T15:16:26Z</time>
      </trkpt>
      <trkpt lat="51.256448044844" lon="4.504480082459">
        <ele>0</ele>
        <time>2020-09-05T15:16:47Z</time>
      </trkpt>
      <trkpt lat="51.255935575478" lon="4.504162576087">
        <ele>0</ele>
        <time>2020-09-05T15:17:06Z</time>
      </trkpt>
      <trkpt lat="51.25542327375" lon="4.503842052231">
        <ele>0</ele>
        <time>2020-09-05T15:17:24Z</time>
      </trkpt>
      <trkpt lat="51.254903260674" lon="4.503525384049">
        <ele>0</ele>
        <time>2020-09-05T15:17:42Z</time>
      </trkpt>
      <trkpt lat="51.254442256174" lon="4.503207207125">
        <ele>0</ele>
        <time>2020-09-05T15:18:05Z</time>
      </trkpt>
      <trkpt lat="51.253916794863" lon="4.502982069291">
        <ele>2.2</ele>
        <time>2020-09-05T15:18:27Z</time>
      </trkpt>
      <trkpt lat="51.253449420119" lon="4.502518047307">
        <ele>0.8</ele>
        <time>2020-09-05T15:18:43Z</time>
      </trkpt>
      <trkpt lat="51.253385466222" lon="4.502416877774">
        <ele>2.2</ele>
        <time>2020-09-05T15:18:45Z</time>
      </trkpt>
      <trkpt lat="51.252928568853" lon="4.501946820822">
        <ele>0</ele>
        <time>2020-09-05T15:19:00Z</time>
      </trkpt>
      <trkpt lat="51.252563034194" lon="4.501317340132">
        <ele>0</ele>
        <time>2020-09-05T15:19:18Z</time>
      </trkpt>
      <trkpt lat="51.252231530049" lon="4.500642429544">
        <ele>4.2</ele>
        <time>2020-09-05T15:19:42Z</time>
      </trkpt>
      <trkpt lat="51.251937157721" lon="4.499885376336">
        <ele>8.4</ele>
        <time>2020-09-05T15:20:02Z</time>
      </trkpt>
      <trkpt lat="51.251570449596" lon="4.499191103559">
        <ele>6.8</ele>
        <time>2020-09-05T15:20:20Z</time>
      </trkpt>
      <trkpt lat="51.251222349289" lon="4.498512756392">
        <ele>4.2</ele>
        <time>2020-09-05T15:20:38Z</time>
      </trkpt>
      <trkpt lat="51.251099135359" lon="4.497909175773">
        <ele>4.4</ele>
        <time>2020-09-05T15:20:51Z</time>
      </trkpt>
      <trkpt lat="51.25104540738" lon="4.497668699062">
        <ele>3.4</ele>
        <time>2020-09-05T15:21:00Z</time>
      </trkpt>
      <trkpt lat="51.250993523419" lon="4.497474155163">
        <ele>1</ele>
        <time>2020-09-05T15:21:47Z</time>
      </trkpt>
      <trkpt lat="51.250947422969" lon="4.497482956158">
        <ele>1.6</ele>
        <time>2020-09-05T15:21:50Z</time>
      </trkpt>
      <trkpt lat="51.25091464974" lon="4.497509191505">
        <ele>1.6</ele>
        <time>2020-09-05T15:21:52Z</time>
      </trkpt>
      <trkpt lat="51.250775007286" lon="4.497689737631">
        <ele>1.6</ele>
        <time>2020-09-05T15:22:00Z</time>
      </trkpt>
      <trkpt lat="51.250214006719" lon="4.497765593826">
        <ele>6</ele>
        <time>2020-09-05T15:22:18Z</time>
      </trkpt>
      <trkpt lat="51.249657197102" lon="4.497782441445">
        <ele>7.8</ele>
        <time>2020-09-05T15:22:33Z</time>
      </trkpt>
      <trkpt lat="51.249100387485" lon="4.497782944359">
        <ele>1.2</ele>
        <time>2020-09-05T15:22:51Z</time>
      </trkpt>
      <trkpt lat="51.248554139062" lon="4.497728294371">
        <ele>0</ele>
        <time>2020-09-05T15:23:07Z</time>
      </trkpt>
      <trkpt lat="51.248008225915" lon="4.497573815954">
        <ele>0</ele>
        <time>2020-09-05T15:23:25Z</time>
      </trkpt>
      <trkpt lat="51.247454433782" lon="4.497514472102">
        <ele>0</ele>
        <time>2020-09-05T15:23:45Z</time>
      </trkpt>
      <trkpt lat="51.246904832599" lon="4.497448674187">
        <ele>0</ele>
        <time>2020-09-05T15:24:02Z</time>
      </trkpt>
      <trkpt lat="51.246326481499" lon="4.497428557627">
        <ele>0</ele>
        <time>2020-09-05T15:24:17Z</time>
      </trkpt>
      <trkpt lat="51.245746537838" lon="4.497386312851">
        <ele>0</ele>
        <time>2020-09-05T15:24:31Z</time>
      </trkpt>
      <trkpt lat="51.245199451225" lon="4.497350605957">
        <ele>0</ele>
        <time>2020-09-05T15:24:46Z</time>
      </trkpt>
      <trkpt lat="51.244718916898" lon="4.497745561085">
        <ele>0</ele>
        <time>2020-09-05T15:25:00Z</time>
      </trkpt>
      <trkpt lat="51.244246764471" lon="4.498246631067">
        <ele>0</ele>
        <time>2020-09-05T15:25:14Z</time>
      </trkpt>
      <trkpt lat="51.243774779682" lon="4.498690201215">
        <ele>0</ele>
        <time>2020-09-05T15:25:29Z</time>
      </trkpt>
      <trkpt lat="51.243368760446" lon="4.498191645803">
        <ele>0</ele>
        <time>2020-09-05T15:25:45Z</time>
      </trkpt>
      <trkpt lat="51.243056283214" lon="4.49744423178">
        <ele>0</ele>
        <time>2020-09-05T15:26:00Z</time>
      </trkpt>
      <trkpt lat="51.242742213421" lon="4.496677623206">
        <ele>0</ele>
        <time>2020-09-05T15:26:15Z</time>
      </trkpt>
      <trkpt lat="51.242478602666" lon="4.495881677982">
        <ele>0</ele>
        <time>2020-09-05T15:26:31Z</time>
      </trkpt>
      <trkpt lat="51.242313814512" lon="4.495015660074">
        <ele>0</ele>
        <time>2020-09-05T15:26:46Z</time>
      </trkpt>
      <trkpt lat="51.24215724062" lon="4.494134135651">
        <ele>0</ele>
        <time>2020-09-05T15:27:02Z</time>
      </trkpt>
      <trkpt lat="51.242036038346" lon="4.49328261843">
        <ele>0</ele>
        <time>2020-09-05T15:27:17Z</time>
      </trkpt>
      <trkpt lat="51.241926570732" lon="4.492416684341">
        <ele>0</ele>
        <time>2020-09-05T15:27:34Z</time>
      </trkpt>
      <trkpt lat="51.241643849245" lon="4.491664157359">
        <ele>0</ele>
        <time>2020-09-05T15:28:01Z</time>
      </trkpt>
      <trkpt lat="51.241158369597" lon="4.491226454541">
        <ele>0</ele>
        <time>2020-09-05T15:28:24Z</time>
      </trkpt>
      <trkpt lat="51.240802055028" lon="4.491066192613">
        <ele>0</ele>
        <time>2020-09-05T15:28:39Z</time>
      </trkpt>
      <trkpt lat="51.240279946477" lon="4.490811466672">
        <ele>0</ele>
        <time>2020-09-05T15:29:03Z</time>
      </trkpt>
      <trkpt lat="51.240102501654" lon="4.490732090079">
        <ele>0</ele>
        <time>2020-09-05T15:29:17Z</time>
      </trkpt>
      <trkpt lat="51.239565640959" lon="4.49048809297">
        <ele>0</ele>
        <time>2020-09-05T15:29:41Z</time>
      </trkpt>
      <trkpt lat="51.239038922363" lon="4.490231103916">
        <ele>0</ele>
        <time>2020-09-05T15:29:57Z</time>
      </trkpt>
      <trkpt lat="51.238496781071" lon="4.490065812848">
        <ele>0</ele>
        <time>2020-09-05T15:30:11Z</time>
      </trkpt>
      <trkpt lat="51.238453614286" lon="4.490061370441">
        <ele>0</ele>
        <time>2020-09-05T15:30:12Z</time>
      </trkpt>
      <trkpt lat="51.237905186569" lon="4.490083414838">
        <ele>0</ele>
        <time>2020-09-05T15:30:25Z</time>
      </trkpt>
      <trkpt lat="51.237387017511" lon="4.490333195458">
        <ele>0</ele>
        <time>2020-09-05T15:30:37Z</time>
      </trkpt>
      <trkpt lat="51.236832973921" lon="4.490508796263">
        <ele>0</ele>
        <time>2020-09-05T15:30:52Z</time>
      </trkpt>
      <trkpt lat="51.236347158997" lon="4.490234037581">
        <ele>0</ele>
        <time>2020-09-05T15:31:16Z</time>
      </trkpt>
      <trkpt lat="51.2363334965" lon="4.490224817491">
        <ele>0</ele>
        <time>2020-09-05T15:31:50Z</time>
      </trkpt>
      <trkpt lat="51.236305165678" lon="4.490181231611">
        <ele>0</ele>
        <time>2020-09-05T15:31:52Z</time>
      </trkpt>
      <trkpt lat="51.236085140803" lon="4.489857606452">
        <ele>0</ele>
        <time>2020-09-05T15:32:03Z</time>
      </trkpt>
      <trkpt lat="51.236080949853" lon="4.489713856867">
        <ele>0</ele>
        <time>2020-09-05T15:32:08Z</time>
      </trkpt>
      <trkpt lat="51.236046667882" lon="4.489689046443">
        <ele>0</ele>
        <time>2020-09-05T15:32:10Z</time>
      </trkpt>
      <trkpt lat="51.235974080628" lon="4.489706564614">
        <ele>0</ele>
        <time>2020-09-05T15:32:13Z</time>
      </trkpt>
      <trkpt lat="51.235597398042" lon="4.489067109463">
        <ele>0</ele>
        <time>2020-09-05T15:32:31Z</time>
      </trkpt>
      <trkpt lat="51.235230773736" lon="4.488409800865">
        <ele>0</ele>
        <time>2020-09-05T15:32:50Z</time>
      </trkpt>
      <trkpt lat="51.234854426426" lon="4.487741763435">
        <ele>0</ele>
        <time>2020-09-05T15:33:09Z</time>
      </trkpt>
      <trkpt lat="51.234505990843" lon="4.487025362442">
        <ele>0</ele>
        <time>2020-09-05T15:33:28Z</time>
      </trkpt>
      <trkpt lat="51.234133163931" lon="4.486364114351">
        <ele>0</ele>
        <time>2020-09-05T15:33:46Z</time>
      </trkpt>
      <trkpt lat="51.233771233489" lon="4.485685096632">
        <ele>0</ele>
        <time>2020-09-05T15:34:02Z</time>
      </trkpt>
      <trkpt lat="51.233416427662" lon="4.48501303589">
        <ele>0</ele>
        <time>2020-09-05T15:34:16Z</time>
      </trkpt>
      <trkpt lat="51.233056005962" lon="4.484350614333">
        <ele>0</ele>
        <time>2020-09-05T15:34:30Z</time>
      </trkpt>
      <trkpt lat="51.232689716932" lon="4.483683918007">
        <ele>0</ele>
        <time>2020-09-05T15:34:44Z</time>
      </trkpt>
      <trkpt lat="51.23226240767" lon="4.483114116445">
        <ele>0</ele>
        <time>2020-09-05T15:35:01Z</time>
      </trkpt>
      <trkpt lat="51.232008771376" lon="4.482313896452">
        <ele>0</ele>
        <time>2020-09-05T15:35:16Z</time>
      </trkpt>
      <trkpt lat="51.231865189429" lon="4.481487860207">
        <ele>0</ele>
        <time>2020-09-05T15:35:32Z</time>
      </trkpt>
      <trkpt lat="51.231842306842" lon="4.480622429032">
        <ele>3.8</ele>
        <time>2020-09-05T15:35:47Z</time>
      </trkpt>
      <trkpt lat="51.23185840009" lon="4.479713244339">
        <ele>7</ele>
        <time>2020-09-05T15:36:04Z</time>
      </trkpt>
      <trkpt lat="51.231861249936" lon="4.479206726122">
        <ele>8</ele>
        <time>2020-09-05T15:36:14Z</time>
      </trkpt>
      <trkpt lat="51.232338096227" lon="4.478904390989">
        <ele>3.8</ele>
        <time>2020-09-05T15:36:32Z</time>
      </trkpt>
      <trkpt lat="51.232205578388" lon="4.478102326978">
        <ele>0</ele>
        <time>2020-09-05T15:36:48Z</time>
      </trkpt>
      <trkpt lat="51.231869212741" lon="4.477367653443">
        <ele>0</ele>
        <time>2020-09-05T15:37:05Z</time>
      </trkpt>
      <trkpt lat="51.23156000445" lon="4.47663365046">
        <ele>0</ele>
        <time>2020-09-05T15:37:23Z</time>
      </trkpt>
      <trkpt lat="51.231268481968" lon="4.47589688145">
        <ele>0</ele>
        <time>2020-09-05T15:37:38Z</time>
      </trkpt>
      <trkpt lat="51.230954076899" lon="4.47516933253">
        <ele>0</ele>
        <time>2020-09-05T15:37:57Z</time>
      </trkpt>
      <trkpt lat="51.23064889192" lon="4.474446226017">
        <ele>0</ele>
        <time>2020-09-05T15:38:13Z</time>
      </trkpt>
      <trkpt lat="51.23034211438" lon="4.473719347649">
        <ele>0</ele>
        <time>2020-09-05T15:38:32Z</time>
      </trkpt>
      <trkpt lat="51.230018237764" lon="4.472988529788">
        <ele>0</ele>
        <time>2020-09-05T15:38:49Z</time>
      </trkpt>
      <trkpt lat="51.229698719736" lon="4.472288976414">
        <ele>0</ele>
        <time>2020-09-05T15:39:06Z</time>
      </trkpt>
      <trkpt lat="51.22937149036" lon="4.471549022282">
        <ele>0</ele>
        <time>2020-09-05T15:39:23Z</time>
      </trkpt>
      <trkpt lat="51.229045685907" lon="4.470824490846">
        <ele>0</ele>
        <time>2020-09-05T15:39:38Z</time>
      </trkpt>
      <trkpt lat="51.228714517038" lon="4.470124518377">
        <ele>0.8</ele>
        <time>2020-09-05T15:39:54Z</time>
      </trkpt>
      <trkpt lat="51.228308330164" lon="4.468979802294">
        <ele>0</ele>
        <time>2020-09-05T15:40:25Z</time>
      </trkpt>
      <trkpt lat="51.22807564862" lon="4.468192993341">
        <ele>0</ele>
        <time>2020-09-05T15:40:46Z</time>
      </trkpt>
      <trkpt lat="51.227885966223" lon="4.467386906018">
        <ele>0</ele>
        <time>2020-09-05T15:41:02Z</time>
      </trkpt>
      <trkpt lat="51.227886720594" lon="4.466765388133">
        <ele>0</ele>
        <time>2020-09-05T15:41:19Z</time>
      </trkpt>
      <trkpt lat="51.227961570961" lon="4.465952176195">
        <ele>0</ele>
        <time>2020-09-05T15:41:38Z</time>
      </trkpt>
      <trkpt lat="51.227918152719" lon="4.465057240732">
        <ele>0</ele>
        <time>2020-09-05T15:41:57Z</time>
      </trkpt>
      <trkpt lat="51.227897365607" lon="4.464170687169">
        <ele>0</ele>
        <time>2020-09-05T15:42:16Z</time>
      </trkpt>
      <trkpt lat="51.2278593956" lon="4.463281116122">
        <ele>0</ele>
        <time>2020-09-05T15:42:36Z</time>
      </trkpt>
      <trkpt lat="51.227888564612" lon="4.462427922521">
        <ele>0.6</ele>
        <time>2020-09-05T15:42:58Z</time>
      </trkpt>
      <trkpt lat="51.227843553809" lon="4.46154623046">
        <ele>2</ele>
        <time>2020-09-05T15:43:16Z</time>
      </trkpt>
      <trkpt lat="51.227805583802" lon="4.460677530344">
        <ele>5.2</ele>
        <time>2020-09-05T15:43:33Z</time>
      </trkpt>
      <trkpt lat="51.228257368212" lon="4.460272936031">
        <ele>6.8</ele>
        <time>2020-09-05T15:43:52Z</time>
      </trkpt>
      <trkpt lat="51.228434645397" lon="4.459504315801">
        <ele>4.4</ele>
        <time>2020-09-05T15:44:11Z</time>
      </trkpt>
      <trkpt lat="51.228531037247" lon="4.458688589293">
        <ele>0</ele>
        <time>2020-09-05T15:44:35Z</time>
      </trkpt>
      <trkpt lat="51.228470184653" lon="4.457826762335">
        <ele>0</ele>
        <time>2020-09-05T15:44:58Z</time>
      </trkpt>
      <trkpt lat="51.228653077711" lon="4.457201221138">
        <ele>0</ele>
        <time>2020-09-05T15:45:19Z</time>
      </trkpt>
      <trkpt lat="51.229189435492" lon="4.45700575523">
        <ele>0</ele>
        <time>2020-09-05T15:45:38Z</time>
      </trkpt>
      <trkpt lat="51.229714393889" lon="4.45681464791">
        <ele>1.4</ele>
        <time>2020-09-05T15:46:05Z</time>
      </trkpt>
      <trkpt lat="51.229727469653" lon="4.456806098372">
        <ele>2</ele>
        <time>2020-09-05T15:46:06Z</time>
      </trkpt>
      <trkpt lat="51.230269275669" lon="4.456641226399">
        <ele>2</ele>
        <time>2020-09-05T15:46:26Z</time>
      </trkpt>
      <trkpt lat="51.23081485354" lon="4.456470822372">
        <ele>2.4</ele>
        <time>2020-09-05T15:46:43Z</time>
      </trkpt>
      <trkpt lat="51.231172844489" lon="4.456177288234">
        <ele>3.4</ele>
        <time>2020-09-05T15:46:57Z</time>
      </trkpt>
      <trkpt lat="51.231019455719" lon="4.456028258052">
        <ele>0.4</ele>
        <time>2020-09-05T15:47:06Z</time>
      </trkpt>
      <trkpt lat="51.231073435155" lon="4.455844359166">
        <ele>0</ele>
        <time>2020-09-05T15:47:15Z</time>
      </trkpt>
      <trkpt lat="51.231278540248" lon="4.455826170443">
        <ele>0</ele>
        <time>2020-09-05T15:47:24Z</time>
      </trkpt>
      <trkpt lat="51.231082906702" lon="4.454994350687">
        <ele>0</ele>
        <time>2020-09-05T15:47:43Z</time>
      </trkpt>
      <trkpt lat="51.230995148209" lon="4.454247439578">
        <ele>0</ele>
        <time>2020-09-05T15:48:10Z</time>
      </trkpt>
      <trkpt lat="51.231000764082" lon="4.454207625553">
        <ele>0</ele>
        <time>2020-09-05T15:48:12Z</time>
      </trkpt>
      <trkpt lat="51.231032363845" lon="4.454152137375">
        <ele>0</ele>
        <time>2020-09-05T15:48:15Z</time>
      </trkpt>
      <trkpt lat="51.230892972848" lon="4.453310091701">
        <ele>0</ele>
        <time>2020-09-05T15:48:37Z</time>
      </trkpt>
      <trkpt lat="51.230722568821" lon="4.452463100706">
        <ele>0</ele>
        <time>2020-09-05T15:48:56Z</time>
      </trkpt>
      <trkpt lat="51.230544621084" lon="4.451607224897">
        <ele>0</ele>
        <time>2020-09-05T15:49:13Z</time>
      </trkpt>
      <trkpt lat="51.230378491826" lon="4.450786217792">
        <ele>0</ele>
        <time>2020-09-05T15:49:32Z</time>
      </trkpt>
      <trkpt lat="51.229823777684" lon="4.45089702651">
        <ele>0</ele>
        <time>2020-09-05T15:49:52Z</time>
      </trkpt>
      <trkpt lat="51.229719842124" lon="4.45090876117">
        <ele>0</ele>
        <time>2020-09-05T15:49:56Z</time>
      </trkpt>
      <trkpt lat="51.229536110876" lon="4.450105104598">
        <ele>0</ele>
        <time>2020-09-05T15:50:12Z</time>
      </trkpt>
      <trkpt lat="51.229394205309" lon="4.44925920325">
        <ele>0</ele>
        <time>2020-09-05T15:50:29Z</time>
      </trkpt>
      <trkpt lat="51.229298400192" lon="4.448882939759">
        <ele>0</ele>
        <time>2020-09-05T15:50:39Z</time>
      </trkpt>
      <trkpt lat="51.228897577734" lon="4.448618909909">
        <ele>0</ele>
        <time>2020-09-05T15:51:01Z</time>
      </trkpt>
      <trkpt lat="51.228535563473" lon="4.449239338147">
        <ele>0</ele>
        <time>2020-09-05T15:51:24Z</time>
      </trkpt>
      <trkpt lat="51.228501281502" lon="4.449301028931">
        <ele>0</ele>
        <time>2020-09-05T15:51:38Z</time>
      </trkpt>
    </trkseg>
  </trk>
</gpx>